AFL1940 UUEE-UAAA
Flight info
| Callsign | AFL1940 |
|---|---|
| Flight time | 4h 5m |
| Altitude | 31000 |
| Route | KOGOM3H KOGOM DCT EKPIR DCT DOGOB DCT INKEB DCT NAMER DCT UNORO DCT NAMUD/K0850F330 DCT RAFIK DCT MILUN DCT TITUR DCT KST DCT TUSEP DCT AGADI DCT RITAB DCT ETEDA ETEDA1Q |
| Aircraft | A321/M-SDE3FGHIRWY/LB1 |
Departure
| Time | 2026-04-22 17:55 |
|---|---|
| Airport | Sheremetyevo International Airport (UUEE) |
Arrival
| Time | 2026-04-22 22:01 |
|---|---|
| Airport | Almaty International Airport (UAAA) |
| Time | Latitude | Longitude | Altitude | Speed | Heading |
|---|---|---|---|---|---|
| 2026-04-22 17:10 | 55.98015 | 37.41818 | 639 ft | 0 kts | 255° |
| 2026-04-22 17:45 | 55.98020 | 37.41853 | 648 ft | 4 kts | 255° |
| 2026-04-22 17:45 | 55.98027 | 37.41899 | 641 ft | 4 kts | 252° |
| 2026-04-22 17:46 | 55.98037 | 37.41943 | 646 ft | 4 kts | 234° |
| 2026-04-22 17:46 | 55.98052 | 37.41965 | 640 ft | 2 kts | 167° |
| 2026-04-22 17:46 | 55.98054 | 37.41964 | 640 ft | 1 kts | 165° |
| 2026-04-22 17:49 | 55.98042 | 37.41970 | 649 ft | 5 kts | 165° |
| 2026-04-22 17:49 | 55.97997 | 37.41992 | 639 ft | 9 kts | 165° |
| 2026-04-22 17:49 | 55.97925 | 37.42026 | 641 ft | 13 kts | 165° |
| 2026-04-22 17:50 | 55.97828 | 37.42072 | 639 ft | 15 kts | 165° |
| 2026-04-22 17:50 | 55.97735 | 37.42117 | 643 ft | 13 kts | 165° |
| 2026-04-22 17:50 | 55.97691 | 37.42219 | 645 ft | 10 kts | 87° |
| 2026-04-22 17:50 | 55.97707 | 37.42332 | 646 ft | 8 kts | 74° |
| 2026-04-22 17:51 | 55.97721 | 37.42420 | 647 ft | 7 kts | 74° |
| 2026-04-22 17:51 | 55.97737 | 37.42529 | 642 ft | 11 kts | 75° |
| 2026-04-22 17:51 | 55.97765 | 37.42715 | 642 ft | 20 kts | 75° |
| 2026-04-22 17:51 | 55.97801 | 37.42960 | 639 ft | 20 kts | 75° |
| 2026-04-22 17:52 | 55.97834 | 37.43184 | 641 ft | 18 kts | 75° |
| 2026-04-22 17:52 | 55.97865 | 37.43391 | 646 ft | 18 kts | 75° |
| 2026-04-22 17:52 | 55.97900 | 37.43623 | 641 ft | 19 kts | 75° |
| 2026-04-22 17:52 | 55.97932 | 37.43839 | 643 ft | 17 kts | 75° |
| 2026-04-22 17:53 | 55.97939 | 37.43995 | 641 ft | 11 kts | 113° |
| 2026-04-22 17:53 | 55.97885 | 37.44053 | 643 ft | 8 kts | 165° |
| 2026-04-22 17:53 | 55.97829 | 37.44080 | 642 ft | 10 kts | 165° |
| 2026-04-22 17:53 | 55.97781 | 37.44020 | 640 ft | 8 kts | 251° |
| 2026-04-22 17:54 | 55.97779 | 37.44006 | 640 ft | 0 kts | 257° |
| 2026-04-22 17:54 | 55.97779 | 37.44007 | 640 ft | 0 kts | 257° |
| 2026-04-22 17:54 | 55.97779 | 37.44005 | 640 ft | 2 kts | 257° |
| 2026-04-22 17:54 | 55.97731 | 37.43678 | 641 ft | 62 kts | 254° |
| 2026-04-22 17:55 | 55.97629 | 37.43016 | 642 ft | 103 kts | 255° |
| 2026-04-22 17:55 | 55.97306 | 37.40842 | 641 ft | 166 kts | 255° |
| 2026-04-22 17:55 | 55.96981 | 37.38732 | 1029 ft | 175 kts | 253° |
| 2026-04-22 17:55 | 55.96648 | 37.36630 | 1761 ft | 172 kts | 253° |
| 2026-04-22 17:56 | 55.96326 | 37.34605 | 2286 ft | 170 kts | 255° |
| 2026-04-22 17:56 | 55.95992 | 37.32484 | 2414 ft | 186 kts | 255° |
| 2026-04-22 17:56 | 55.95633 | 37.30194 | 2543 ft | 203 kts | 255° |
| 2026-04-22 17:56 | 55.95233 | 37.27634 | 2666 ft | 225 kts | 255° |
| 2026-04-22 17:57 | 55.94800 | 37.24873 | 3117 ft | 235 kts | 256° |
| 2026-04-22 17:57 | 55.94355 | 37.22043 | 3760 ft | 238 kts | 256° |
| 2026-04-22 17:57 | 55.93905 | 37.19194 | 4454 ft | 239 kts | 257° |
| 2026-04-22 17:57 | 55.93453 | 37.16332 | 5171 ft | 240 kts | 257° |
| 2026-04-22 17:58 | 55.92998 | 37.13453 | 5839 ft | 243 kts | 258° |
| 2026-04-22 17:58 | 55.92536 | 37.10523 | 6426 ft | 247 kts | 258° |
| 2026-04-22 17:58 | 55.92069 | 37.07558 | 7005 ft | 251 kts | 257° |
| 2026-04-22 17:58 | 55.91721 | 37.04498 | 7573 ft | 252 kts | 271° |
| 2026-04-22 17:59 | 55.91975 | 37.01421 | 8136 ft | 254 kts | 291° |
| 2026-04-22 17:59 | 55.92854 | 36.98682 | 8697 ft | 258 kts | 310° |
| 2026-04-22 17:59 | 55.94250 | 36.96615 | 9295 ft | 263 kts | 323° |
| 2026-04-22 17:59 | 55.95767 | 36.94759 | 9843 ft | 267 kts | 322° |
| 2026-04-22 18:00 | 55.96781 | 36.93519 | 9936 ft | 268 kts | 324° |
| 2026-04-22 18:00 | 55.99147 | 36.92063 | 9984 ft | 276 kts | 353° |
| 2026-04-22 18:00 | 56.01075 | 36.92533 | 10185 ft | 288 kts | 16° |
| 2026-04-22 18:00 | 56.02861 | 36.94271 | 10765 ft | 296 kts | 28° |
| 2026-04-22 18:01 | 56.04596 | 36.96277 | 11327 ft | 298 kts | 28° |
| 2026-04-22 18:01 | 56.06352 | 36.98330 | 11873 ft | 302 kts | 28° |
| 2026-04-22 18:01 | 56.08108 | 37.00391 | 12425 ft | 304 kts | 29° |
| 2026-04-22 18:01 | 56.09860 | 37.02577 | 12972 ft | 310 kts | 37° |
| 2026-04-22 18:02 | 56.11350 | 37.05434 | 13445 ft | 319 kts | 51° |
| 2026-04-22 18:02 | 56.12443 | 37.08987 | 13582 ft | 337 kts | 67° |
| 2026-04-22 18:02 | 56.13090 | 37.13123 | 13869 ft | 348 kts | 74° |
| 2026-04-22 18:02 | 56.13674 | 37.17351 | 14335 ft | 351 kts | 74° |
| 2026-04-22 18:03 | 56.14273 | 37.21622 | 14520 ft | 353 kts | 74° |
| 2026-04-22 18:03 | 56.14609 | 37.25972 | 14545 ft | 355 kts | 90° |
| 2026-04-22 18:03 | 56.14211 | 37.30321 | 14554 ft | 355 kts | 109° |
| 2026-04-22 18:03 | 56.13083 | 37.34237 | 14645 ft | 355 kts | 129° |
| 2026-04-22 18:04 | 56.11336 | 37.37351 | 15159 ft | 354 kts | 146° |
| 2026-04-22 18:04 | 56.09192 | 37.39513 | 15632 ft | 355 kts | 157° |
| 2026-04-22 18:04 | 56.06949 | 37.41422 | 16120 ft | 358 kts | 157° |
| 2026-04-22 18:04 | 56.04685 | 37.43320 | 16596 ft | 361 kts | 157° |
| 2026-04-22 18:05 | 56.02399 | 37.45224 | 17052 ft | 364 kts | 157° |
| 2026-04-22 18:05 | 56.00095 | 37.47143 | 17511 ft | 367 kts | 157° |
| 2026-04-22 18:05 | 55.98567 | 37.48482 | 17813 ft | 370 kts | 152° |
| 2026-04-22 18:05 | 55.96469 | 37.51175 | 18174 ft | 375 kts | 137° |
| 2026-04-22 18:06 | 55.94752 | 37.54708 | 18575 ft | 379 kts | 123° |
| 2026-04-22 18:06 | 55.93532 | 37.58866 | 18982 ft | 380 kts | 109° |
| 2026-04-22 18:06 | 55.92850 | 37.63419 | 19385 ft | 381 kts | 99° |
| 2026-04-22 18:06 | 55.92346 | 37.68077 | 19793 ft | 383 kts | 99° |
| 2026-04-22 18:07 | 55.91757 | 37.72712 | 20225 ft | 385 kts | 107° |
| 2026-04-22 18:07 | 55.90728 | 37.77193 | 20634 ft | 387 kts | 118° |
| 2026-04-22 18:07 | 55.89428 | 37.81332 | 21029 ft | 389 kts | 119° |
| 2026-04-22 18:07 | 55.88102 | 37.85542 | 21424 ft | 391 kts | 119° |
| 2026-04-22 18:08 | 55.86771 | 37.89795 | 21816 ft | 393 kts | 118° |
| 2026-04-22 18:08 | 55.85420 | 37.94120 | 22204 ft | 396 kts | 118° |
| 2026-04-22 18:08 | 55.84078 | 37.98409 | 22586 ft | 398 kts | 118° |
| 2026-04-22 18:08 | 55.82726 | 38.02718 | 22962 ft | 400 kts | 118° |
| 2026-04-22 18:09 | 55.81383 | 38.07061 | 23285 ft | 402 kts | 115° |
| 2026-04-22 18:09 | 55.80365 | 38.11680 | 23564 ft | 402 kts | 104° |
| 2026-04-22 18:09 | 55.79820 | 38.16563 | 23771 ft | 405 kts | 93° |
| 2026-04-22 18:09 | 55.79769 | 38.21595 | 23900 ft | 409 kts | 85° |
| 2026-04-22 18:10 | 55.79903 | 38.26681 | 24021 ft | 416 kts | 85° |
| 2026-04-22 18:10 | 55.80024 | 38.31881 | 24169 ft | 423 kts | 86° |
| 2026-04-22 18:10 | 55.80153 | 38.37130 | 24295 ft | 428 kts | 83° |
| 2026-04-22 18:10 | 55.80574 | 38.42386 | 24408 ft | 432 kts | 75° |
| 2026-04-22 18:11 | 55.81390 | 38.47558 | 24533 ft | 436 kts | 70° |
| 2026-04-22 18:11 | 55.82323 | 38.52725 | 24654 ft | 442 kts | 70° |
| 2026-04-22 18:11 | 55.83267 | 38.57969 | 24777 ft | 448 kts | 70° |
| 2026-04-22 18:11 | 55.84216 | 38.63271 | 24909 ft | 453 kts | 70° |
| 2026-04-22 18:12 | 55.85178 | 38.68651 | 25021 ft | 458 kts | 69° |
| 2026-04-22 18:12 | 55.86339 | 38.73946 | 25160 ft | 460 kts | 62° |
| 2026-04-22 18:12 | 55.87725 | 38.79094 | 25283 ft | 464 kts | 62° |
| 2026-04-22 18:12 | 55.89123 | 38.84318 | 25426 ft | 468 kts | 62° |
| 2026-04-22 18:13 | 55.90516 | 38.89570 | 25695 ft | 470 kts | 62° |
| 2026-04-22 18:13 | 55.91906 | 38.94836 | 26007 ft | 470 kts | 62° |
| 2026-04-22 18:13 | 55.93298 | 39.00124 | 26315 ft | 470 kts | 62° |
| 2026-04-22 18:13 | 55.94687 | 39.05413 | 26652 ft | 470 kts | 62° |
| 2026-04-22 18:14 | 55.95864 | 39.10852 | 26982 ft | 472 kts | 71° |
| 2026-04-22 18:14 | 55.96603 | 39.16573 | 27312 ft | 474 kts | 79° |
| 2026-04-22 18:14 | 55.96951 | 39.22432 | 27669 ft | 474 kts | 82° |
| 2026-04-22 18:14 | 55.97253 | 39.28276 | 28046 ft | 472 kts | 82° |
| 2026-04-22 18:15 | 55.97558 | 39.34116 | 28401 ft | 471 kts | 82° |
| 2026-04-22 18:15 | 55.97863 | 39.39925 | 28737 ft | 471 kts | 82° |
| 2026-04-22 18:15 | 55.98167 | 39.45745 | 29062 ft | 470 kts | 82° |
| 2026-04-22 18:15 | 55.98467 | 39.51554 | 29382 ft | 469 kts | 82° |
| 2026-04-22 18:16 | 55.98765 | 39.57360 | 29682 ft | 468 kts | 82° |
| 2026-04-22 18:16 | 55.99195 | 39.63116 | 29932 ft | 466 kts | 75° |
| 2026-04-22 18:16 | 56.00054 | 39.68674 | 30148 ft | 463 kts | 67° |
| 2026-04-22 18:16 | 56.01301 | 39.73954 | 30369 ft | 461 kts | 63° |
| 2026-04-22 18:17 | 56.02369 | 39.79388 | 30536 ft | 465 kts | 73° |
| 2026-04-22 18:17 | 56.03037 | 39.90987 | 30564 ft | 474 kts | 87° |
| 2026-04-22 18:18 | 56.03146 | 40.02697 | 30564 ft | 474 kts | 86° |
| 2026-04-22 18:18 | 56.03309 | 40.14530 | 30562 ft | 472 kts | 86° |
| 2026-04-22 18:19 | 56.03453 | 40.26197 | 30562 ft | 472 kts | 87° |
| 2026-04-22 18:19 | 56.03574 | 40.37942 | 30578 ft | 472 kts | 87° |
| 2026-04-22 18:20 | 56.03672 | 40.49690 | 30574 ft | 473 kts | 87° |
| 2026-04-22 18:20 | 56.03773 | 40.61450 | 30559 ft | 473 kts | 87° |
| 2026-04-22 18:21 | 56.03855 | 40.73212 | 30558 ft | 473 kts | 88° |
| 2026-04-22 18:21 | 56.03922 | 40.84986 | 30575 ft | 472 kts | 88° |
| 2026-04-22 18:22 | 56.03992 | 40.96716 | 30576 ft | 471 kts | 88° |
| 2026-04-22 18:22 | 56.04048 | 41.08437 | 30576 ft | 471 kts | 88° |
| 2026-04-22 18:23 | 56.04088 | 41.20136 | 30578 ft | 470 kts | 88° |
| 2026-04-22 18:23 | 56.04119 | 41.31836 | 30583 ft | 470 kts | 88° |
| 2026-04-22 18:24 | 56.04140 | 41.49385 | 30578 ft | 470 kts | 89° |
| 2026-04-22 18:25 | 56.04131 | 41.66924 | 30580 ft | 469 kts | 89° |
| 2026-04-22 18:25 | 56.04112 | 41.78593 | 30587 ft | 469 kts | 89° |
| 2026-04-22 18:26 | 56.04076 | 41.96062 | 30581 ft | 468 kts | 89° |
| 2026-04-22 18:26 | 56.04035 | 42.07705 | 30602 ft | 468 kts | 89° |
| 2026-04-22 18:27 | 56.03984 | 42.19363 | 30587 ft | 468 kts | 89° |
| 2026-04-22 18:27 | 56.03918 | 42.31011 | 30576 ft | 469 kts | 90° |
| 2026-04-22 18:28 | 56.03842 | 42.42651 | 30587 ft | 468 kts | 90° |
| 2026-04-22 18:28 | 56.03753 | 42.54287 | 30589 ft | 467 kts | 90° |
| 2026-04-22 18:29 | 56.03653 | 42.65912 | 30597 ft | 467 kts | 90° |
| 2026-04-22 18:29 | 56.03545 | 42.77520 | 30595 ft | 467 kts | 90° |
| 2026-04-22 18:30 | 56.03366 | 42.94862 | 30607 ft | 467 kts | 90° |
| 2026-04-22 18:31 | 56.03228 | 43.06482 | 30603 ft | 467 kts | 90° |
| 2026-04-22 18:31 | 56.03080 | 43.18094 | 30597 ft | 467 kts | 90° |
| 2026-04-22 18:32 | 56.02919 | 43.29707 | 30598 ft | 467 kts | 91° |
| 2026-04-22 18:32 | 56.03373 | 43.41256 | 30593 ft | 466 kts | 82° |
| 2026-04-22 18:33 | 56.04175 | 43.52762 | 30587 ft | 466 kts | 82° |
| 2026-04-22 18:33 | 56.04946 | 43.64264 | 30584 ft | 466 kts | 82° |
| 2026-04-22 18:34 | 56.05706 | 43.75768 | 30593 ft | 466 kts | 82° |
| 2026-04-22 18:34 | 56.06460 | 43.87301 | 30584 ft | 466 kts | 83° |
| 2026-04-22 18:35 | 56.07201 | 43.98830 | 30594 ft | 465 kts | 83° |
| 2026-04-22 18:35 | 56.07929 | 44.10340 | 30604 ft | 465 kts | 83° |
| 2026-04-22 18:36 | 56.08646 | 44.21846 | 30605 ft | 464 kts | 83° |
| 2026-04-22 18:36 | 56.09356 | 44.33316 | 30605 ft | 464 kts | 83° |
| 2026-04-22 18:37 | 56.10057 | 44.44804 | 30610 ft | 464 kts | 83° |
| 2026-04-22 18:37 | 56.10626 | 44.54348 | 30602 ft | 464 kts | 83° |
| 2026-04-22 18:38 | 56.11244 | 44.67807 | 30600 ft | 464 kts | 91° |
| 2026-04-22 18:38 | 56.11022 | 44.79365 | 30592 ft | 464 kts | 91° |
| 2026-04-22 18:39 | 56.10656 | 44.96668 | 30619 ft | 462 kts | 91° |
| 2026-04-22 18:39 | 56.10401 | 45.08074 | 30614 ft | 461 kts | 91° |
| 2026-04-22 18:40 | 56.10137 | 45.19630 | 30616 ft | 461 kts | 91° |
| 2026-04-22 18:40 | 56.09867 | 45.31079 | 30612 ft | 460 kts | 91° |
| 2026-04-22 18:41 | 56.09593 | 45.42535 | 30612 ft | 460 kts | 91° |
| 2026-04-22 18:41 | 56.09301 | 45.53989 | 30606 ft | 460 kts | 92° |
| 2026-04-22 18:42 | 56.08988 | 45.65403 | 30620 ft | 459 kts | 91° |
| 2026-04-22 18:42 | 56.08667 | 45.76809 | 30623 ft | 458 kts | 91° |
| 2026-04-22 18:43 | 56.08345 | 45.88127 | 30624 ft | 457 kts | 91° |
| 2026-04-22 18:43 | 56.08016 | 45.99484 | 30621 ft | 457 kts | 92° |
| 2026-04-22 18:44 | 56.07675 | 46.10836 | 30626 ft | 456 kts | 92° |
| 2026-04-22 18:44 | 56.07380 | 46.20340 | 30620 ft | 456 kts | 92° |
| 2026-04-22 18:45 | 56.07015 | 46.31688 | 30614 ft | 456 kts | 92° |
| 2026-04-22 18:45 | 56.06639 | 46.42951 | 30626 ft | 455 kts | 92° |
| 2026-04-22 18:46 | 56.05755 | 46.54216 | 30634 ft | 456 kts | 105° |
| 2026-04-22 18:46 | 56.03560 | 46.64876 | 30633 ft | 457 kts | 109° |
| 2026-04-22 18:47 | 56.01281 | 46.75481 | 30626 ft | 457 kts | 109° |
| 2026-04-22 18:47 | 55.99014 | 46.86006 | 30622 ft | 457 kts | 109° |
| 2026-04-22 18:48 | 55.96732 | 46.96597 | 30641 ft | 456 kts | 110° |
| 2026-04-22 18:48 | 55.94442 | 47.07160 | 30636 ft | 457 kts | 110° |
| 2026-04-22 18:49 | 55.92131 | 47.17703 | 30639 ft | 457 kts | 110° |
| 2026-04-22 18:49 | 55.89814 | 47.28252 | 30634 ft | 457 kts | 110° |
| 2026-04-22 18:50 | 55.87483 | 47.38796 | 30637 ft | 457 kts | 110° |
| 2026-04-22 18:50 | 55.85154 | 47.49325 | 30636 ft | 457 kts | 110° |
| 2026-04-22 18:51 | 55.82812 | 47.59848 | 30624 ft | 458 kts | 111° |
| 2026-04-22 18:51 | 55.80450 | 47.70387 | 30627 ft | 459 kts | 111° |
| 2026-04-22 18:52 | 55.78072 | 47.80936 | 30630 ft | 460 kts | 111° |
| 2026-04-22 18:52 | 55.75691 | 47.91457 | 30642 ft | 460 kts | 111° |
| 2026-04-22 18:53 | 55.73302 | 48.01999 | 30638 ft | 460 kts | 111° |
| 2026-04-22 18:53 | 55.70908 | 48.12515 | 30644 ft | 460 kts | 112° |
| 2026-04-22 18:54 | 55.68495 | 48.23036 | 30643 ft | 460 kts | 112° |
| 2026-04-22 18:54 | 55.66073 | 48.33528 | 30653 ft | 460 kts | 112° |
| 2026-04-22 18:55 | 55.63644 | 48.44027 | 30655 ft | 460 kts | 112° |
| 2026-04-22 18:55 | 55.61205 | 48.54498 | 30659 ft | 460 kts | 113° |
| 2026-04-22 18:56 | 55.58757 | 48.64946 | 30655 ft | 460 kts | 113° |
| 2026-04-22 18:56 | 55.56305 | 48.75406 | 30665 ft | 460 kts | 113° |
| 2026-04-22 18:57 | 55.53848 | 48.85839 | 30665 ft | 460 kts | 113° |
| 2026-04-22 18:57 | 55.51372 | 48.96262 | 30672 ft | 460 kts | 113° |
| 2026-04-22 18:58 | 55.48887 | 49.06677 | 30677 ft | 461 kts | 114° |
| 2026-04-22 18:58 | 55.46389 | 49.17078 | 30684 ft | 461 kts | 114° |
| 2026-04-22 18:59 | 55.43891 | 49.27458 | 30688 ft | 460 kts | 114° |
| 2026-04-22 18:59 | 55.41391 | 49.37831 | 30691 ft | 460 kts | 114° |
| 2026-04-22 19:00 | 55.38871 | 49.48200 | 30691 ft | 460 kts | 114° |
| 2026-04-22 19:00 | 55.36347 | 49.58524 | 30697 ft | 460 kts | 114° |
| 2026-04-22 19:01 | 55.33819 | 49.68836 | 30695 ft | 460 kts | 114° |
| 2026-04-22 19:01 | 55.31271 | 49.79152 | 30698 ft | 460 kts | 114° |
| 2026-04-22 19:02 | 55.28723 | 49.89445 | 30694 ft | 460 kts | 114° |
| 2026-04-22 19:02 | 55.26169 | 49.99720 | 30692 ft | 460 kts | 115° |
| 2026-04-22 19:03 | 55.23602 | 50.09996 | 30689 ft | 461 kts | 115° |
| 2026-04-22 19:03 | 55.21024 | 50.20270 | 30696 ft | 460 kts | 115° |
| 2026-04-22 19:04 | 55.18441 | 50.30517 | 30704 ft | 460 kts | 115° |
| 2026-04-22 19:04 | 55.15850 | 50.40753 | 30709 ft | 459 kts | 115° |
| 2026-04-22 19:05 | 55.13252 | 50.50940 | 30709 ft | 459 kts | 115° |
| 2026-04-22 19:05 | 55.10644 | 50.61120 | 30710 ft | 459 kts | 115° |
| 2026-04-22 19:06 | 55.08047 | 50.71226 | 30701 ft | 459 kts | 116° |
| 2026-04-22 19:07 | 55.04293 | 50.86594 | 30761 ft | 462 kts | 109° |
| 2026-04-22 19:07 | 55.03334 | 50.91935 | 30965 ft | 463 kts | 109° |
| 2026-04-22 19:07 | 55.02370 | 50.97282 | 31180 ft | 463 kts | 109° |
| 2026-04-22 19:07 | 55.01395 | 51.02649 | 31397 ft | 463 kts | 109° |
| 2026-04-22 19:08 | 55.00416 | 51.07991 | 31596 ft | 464 kts | 109° |
| 2026-04-22 19:08 | 54.99429 | 51.13340 | 31779 ft | 465 kts | 109° |
| 2026-04-22 19:08 | 54.98436 | 51.18701 | 31979 ft | 465 kts | 109° |
| 2026-04-22 19:08 | 54.97445 | 51.24059 | 32181 ft | 465 kts | 109° |
| 2026-04-22 19:09 | 54.96450 | 51.29427 | 32345 ft | 466 kts | 110° |
| 2026-04-22 19:09 | 54.95455 | 51.34791 | 32512 ft | 467 kts | 110° |
| 2026-04-22 19:09 | 54.94781 | 51.38425 | 32641 ft | 467 kts | 110° |
| 2026-04-22 19:10 | 54.92445 | 51.50933 | 32724 ft | 468 kts | 110° |
| 2026-04-22 19:10 | 54.90424 | 51.61691 | 32723 ft | 468 kts | 110° |
| 2026-04-22 19:11 | 54.88391 | 51.72445 | 32726 ft | 468 kts | 110° |
| 2026-04-22 19:11 | 54.86352 | 51.83171 | 32725 ft | 468 kts | 110° |
| 2026-04-22 19:12 | 54.84302 | 51.93898 | 32713 ft | 469 kts | 111° |
| 2026-04-22 19:12 | 54.82231 | 52.04638 | 32724 ft | 469 kts | 111° |
| 2026-04-22 19:13 | 54.80146 | 52.15371 | 32726 ft | 470 kts | 111° |
| 2026-04-22 19:13 | 54.78055 | 52.26110 | 32735 ft | 470 kts | 111° |
| 2026-04-22 19:14 | 54.75960 | 52.36847 | 32740 ft | 470 kts | 111° |
| 2026-04-22 19:14 | 54.73857 | 52.47565 | 32728 ft | 471 kts | 112° |
| 2026-04-22 19:15 | 54.72100 | 52.56474 | 32729 ft | 471 kts | 112° |
| 2026-04-22 19:15 | 54.69609 | 52.69012 | 32736 ft | 471 kts | 112° |
| 2026-04-22 19:16 | 54.67464 | 52.79713 | 32744 ft | 471 kts | 112° |
| 2026-04-22 19:16 | 54.65313 | 52.90406 | 32750 ft | 471 kts | 112° |
| 2026-04-22 19:17 | 54.63148 | 53.01105 | 32731 ft | 471 kts | 112° |
| 2026-04-22 19:17 | 54.60992 | 53.11708 | 32740 ft | 471 kts | 112° |
| 2026-04-22 19:18 | 54.58797 | 53.22443 | 32741 ft | 471 kts | 112° |
| 2026-04-22 19:18 | 54.56611 | 53.33091 | 32745 ft | 471 kts | 113° |
| 2026-04-22 19:19 | 54.54409 | 53.43731 | 32749 ft | 471 kts | 113° |
| 2026-04-22 19:19 | 54.52235 | 53.54394 | 32751 ft | 472 kts | 111° |
| 2026-04-22 19:20 | 54.50433 | 53.65271 | 32737 ft | 474 kts | 108° |
| 2026-04-22 19:20 | 54.48809 | 53.76287 | 32740 ft | 475 kts | 108° |
| 2026-04-22 19:21 | 54.47119 | 53.87244 | 32742 ft | 475 kts | 109° |
| 2026-04-22 19:21 | 54.45321 | 53.98184 | 32746 ft | 474 kts | 109° |
| 2026-04-22 19:22 | 54.43494 | 54.09079 | 32747 ft | 475 kts | 110° |
| 2026-04-22 19:22 | 54.41679 | 54.19967 | 32719 ft | 475 kts | 110° |
| 2026-04-22 19:23 | 54.39870 | 54.30886 | 32734 ft | 476 kts | 110° |
| 2026-04-22 19:23 | 54.38048 | 54.41811 | 32743 ft | 476 kts | 110° |
| 2026-04-22 19:24 | 54.36517 | 54.50883 | 32754 ft | 476 kts | 110° |
| 2026-04-22 19:24 | 54.34662 | 54.61792 | 32764 ft | 477 kts | 110° |
| 2026-04-22 19:25 | 54.32800 | 54.72714 | 32764 ft | 477 kts | 110° |
| 2026-04-22 19:25 | 54.30928 | 54.83615 | 32747 ft | 477 kts | 111° |
| 2026-04-22 19:26 | 54.29048 | 54.94505 | 32755 ft | 477 kts | 110° |
| 2026-04-22 19:26 | 54.27161 | 55.05407 | 32768 ft | 477 kts | 111° |
| 2026-04-22 19:27 | 54.25263 | 55.16273 | 32777 ft | 477 kts | 111° |
| 2026-04-22 19:27 | 54.23352 | 55.27130 | 32781 ft | 477 kts | 111° |
| 2026-04-22 19:28 | 54.21432 | 55.37979 | 32777 ft | 476 kts | 111° |
| 2026-04-22 19:28 | 54.19503 | 55.48794 | 32774 ft | 476 kts | 111° |
| 2026-04-22 19:29 | 54.17555 | 55.59677 | 32778 ft | 476 kts | 111° |
| 2026-04-22 19:29 | 54.15619 | 55.70403 | 32776 ft | 476 kts | 111° |
| 2026-04-22 19:30 | 54.13986 | 55.79432 | 32775 ft | 476 kts | 111° |
| 2026-04-22 19:30 | 54.11695 | 55.92020 | 32772 ft | 476 kts | 111° |
| 2026-04-22 19:31 | 54.09733 | 56.02709 | 32745 ft | 475 kts | 112° |
| 2026-04-22 19:31 | 54.07735 | 56.13507 | 32758 ft | 475 kts | 112° |
| 2026-04-22 19:32 | 54.05757 | 56.24168 | 32763 ft | 475 kts | 112° |
| 2026-04-22 19:32 | 54.03759 | 56.34897 | 32769 ft | 475 kts | 112° |
| 2026-04-22 19:33 | 54.01755 | 56.45614 | 32780 ft | 475 kts | 112° |
| 2026-04-22 19:33 | 53.99742 | 56.56309 | 32782 ft | 475 kts | 112° |
| 2026-04-22 19:34 | 53.97708 | 56.67008 | 32751 ft | 475 kts | 113° |
| 2026-04-22 19:34 | 53.95964 | 56.77873 | 32771 ft | 481 kts | 105° |
| 2026-04-22 19:35 | 53.94769 | 56.89036 | 32774 ft | 481 kts | 105° |
| 2026-04-22 19:35 | 53.93558 | 57.00181 | 32788 ft | 480 kts | 105° |
| 2026-04-22 19:36 | 53.92329 | 57.11331 | 32797 ft | 480 kts | 105° |
| 2026-04-22 19:36 | 53.91092 | 57.22456 | 32792 ft | 480 kts | 105° |
| 2026-04-22 19:37 | 53.89838 | 57.33569 | 32769 ft | 480 kts | 106° |
| 2026-04-22 19:37 | 53.88574 | 57.44682 | 32776 ft | 481 kts | 106° |
| 2026-04-22 19:38 | 53.87301 | 57.55817 | 32797 ft | 481 kts | 106° |
| 2026-04-22 19:38 | 53.86028 | 57.66958 | 32792 ft | 482 kts | 106° |
| 2026-04-22 19:39 | 53.84740 | 57.78073 | 32785 ft | 481 kts | 107° |
| 2026-04-22 19:39 | 53.83438 | 57.89203 | 32795 ft | 482 kts | 107° |
| 2026-04-22 19:40 | 53.82124 | 58.00326 | 32761 ft | 481 kts | 107° |
| 2026-04-22 19:40 | 53.80802 | 58.11419 | 32770 ft | 481 kts | 108° |
| 2026-04-22 19:41 | 53.79464 | 58.22541 | 32786 ft | 482 kts | 108° |
| 2026-04-22 19:41 | 53.78118 | 58.33664 | 32790 ft | 483 kts | 108° |
| 2026-04-22 19:42 | 53.76760 | 58.44786 | 32792 ft | 483 kts | 108° |
| 2026-04-22 19:42 | 53.75388 | 58.55885 | 32796 ft | 483 kts | 108° |
| 2026-04-22 19:43 | 53.73312 | 58.72537 | 32767 ft | 483 kts | 108° |
| 2026-04-22 19:43 | 53.71921 | 58.83649 | 32760 ft | 483 kts | 109° |
| 2026-04-22 19:44 | 53.70515 | 58.94739 | 32775 ft | 483 kts | 109° |
| 2026-04-22 19:44 | 53.69098 | 59.05832 | 32788 ft | 484 kts | 109° |
| 2026-04-22 19:45 | 53.67670 | 59.16927 | 32790 ft | 484 kts | 109° |
| 2026-04-22 19:45 | 53.66235 | 59.27999 | 32797 ft | 484 kts | 109° |
| 2026-04-22 19:46 | 53.64788 | 59.39061 | 32766 ft | 483 kts | 109° |
| 2026-04-22 19:46 | 53.63329 | 59.50127 | 32779 ft | 483 kts | 109° |
| 2026-04-22 19:47 | 53.61864 | 59.61181 | 32781 ft | 484 kts | 109° |
| 2026-04-22 19:47 | 53.60386 | 59.72241 | 32784 ft | 485 kts | 110° |
| 2026-04-22 19:48 | 53.58891 | 59.83322 | 32801 ft | 485 kts | 110° |
| 2026-04-22 19:48 | 53.57390 | 59.94398 | 32806 ft | 486 kts | 110° |
| 2026-04-22 19:49 | 53.55877 | 60.05483 | 32808 ft | 486 kts | 110° |
| 2026-04-22 19:49 | 53.54344 | 60.16536 | 32805 ft | 486 kts | 110° |
| 2026-04-22 19:50 | 53.52803 | 60.27587 | 32787 ft | 485 kts | 110° |
| 2026-04-22 19:50 | 53.51263 | 60.38613 | 32799 ft | 485 kts | 110° |
| 2026-04-22 19:51 | 53.49726 | 60.49555 | 32811 ft | 484 kts | 110° |
| 2026-04-22 19:51 | 53.48164 | 60.60548 | 32812 ft | 484 kts | 110° |
| 2026-04-22 19:52 | 53.46580 | 60.71621 | 32814 ft | 484 kts | 110° |
| 2026-04-22 19:52 | 53.45003 | 60.82598 | 32802 ft | 484 kts | 110° |
| 2026-04-22 19:53 | 53.43413 | 60.93554 | 32814 ft | 483 kts | 110° |
| 2026-04-22 19:53 | 53.41812 | 61.04494 | 32823 ft | 483 kts | 110° |
| 2026-04-22 19:54 | 53.40234 | 61.15433 | 32829 ft | 485 kts | 107° |
| 2026-04-22 19:54 | 53.39297 | 61.26682 | 32827 ft | 488 kts | 104° |
| 2026-04-22 19:55 | 53.38394 | 61.37946 | 32831 ft | 488 kts | 104° |
| 2026-04-22 19:55 | 53.37479 | 61.49216 | 32830 ft | 488 kts | 104° |
| 2026-04-22 19:56 | 53.36556 | 61.60450 | 32808 ft | 487 kts | 104° |
| 2026-04-22 19:56 | 53.35626 | 61.71675 | 32823 ft | 486 kts | 104° |
| 2026-04-22 19:57 | 53.34681 | 61.82876 | 32829 ft | 485 kts | 104° |
| 2026-04-22 19:57 | 53.33729 | 61.94047 | 32833 ft | 485 kts | 104° |
| 2026-04-22 19:58 | 53.32777 | 62.05133 | 32825 ft | 484 kts | 104° |
| 2026-04-22 19:58 | 53.31801 | 62.16341 | 32824 ft | 484 kts | 104° |
| 2026-04-22 20:00 | 53.28342 | 62.55210 | 32816 ft | 483 kts | 105° |
| 2026-04-22 20:01 | 53.27330 | 62.66289 | 32813 ft | 482 kts | 105° |
| 2026-04-22 20:01 | 53.26303 | 62.77348 | 32808 ft | 482 kts | 105° |
| 2026-04-22 20:02 | 53.25434 | 62.86614 | 32801 ft | 482 kts | 105° |
| 2026-04-22 20:02 | 53.24400 | 62.97664 | 32800 ft | 481 kts | 105° |
| 2026-04-22 20:03 | 53.23181 | 63.10487 | 32800 ft | 481 kts | 105° |
| 2026-04-22 20:03 | 53.22125 | 63.21520 | 32781 ft | 481 kts | 105° |
| 2026-04-22 20:04 | 53.21231 | 63.30738 | 32798 ft | 481 kts | 105° |
| 2026-04-22 20:04 | 53.20145 | 63.41737 | 32806 ft | 480 kts | 105° |
| 2026-04-22 20:05 | 53.18721 | 63.52454 | 32805 ft | 471 kts | 117° |
| 2026-04-22 20:05 | 53.15658 | 63.61837 | 32791 ft | 454 kts | 135° |
| 2026-04-22 20:06 | 53.11529 | 63.69698 | 32791 ft | 450 kts | 138° |
| 2026-04-22 20:06 | 53.07372 | 63.77494 | 32756 ft | 451 kts | 138° |
| 2026-04-22 20:07 | 53.03210 | 63.85302 | 32770 ft | 451 kts | 138° |
| 2026-04-22 20:07 | 52.99030 | 63.93099 | 32783 ft | 451 kts | 138° |
| 2026-04-22 20:08 | 52.94845 | 64.00855 | 32797 ft | 451 kts | 138° |
| 2026-04-22 20:08 | 52.90652 | 64.08604 | 32761 ft | 451 kts | 138° |
| 2026-04-22 20:09 | 52.86460 | 64.16323 | 32773 ft | 451 kts | 138° |
| 2026-04-22 20:09 | 52.82265 | 64.24029 | 32787 ft | 450 kts | 138° |
| 2026-04-22 20:10 | 52.78097 | 64.31669 | 32786 ft | 450 kts | 138° |
| 2026-04-22 20:10 | 52.73900 | 64.39339 | 32791 ft | 450 kts | 139° |
| 2026-04-22 20:11 | 52.69698 | 64.46992 | 32769 ft | 449 kts | 139° |
| 2026-04-22 20:11 | 52.65495 | 64.54614 | 32789 ft | 449 kts | 139° |
| 2026-04-22 20:12 | 52.61298 | 64.62215 | 32793 ft | 449 kts | 139° |
| 2026-04-22 20:12 | 52.57092 | 64.69806 | 32803 ft | 449 kts | 139° |
| 2026-04-22 20:13 | 52.52858 | 64.77427 | 32768 ft | 448 kts | 139° |
| 2026-04-22 20:13 | 52.48662 | 64.84966 | 32788 ft | 447 kts | 139° |
| 2026-04-22 20:14 | 52.44456 | 64.92479 | 32801 ft | 447 kts | 139° |
| 2026-04-22 20:14 | 52.40252 | 64.99960 | 32802 ft | 446 kts | 139° |
| 2026-04-22 20:15 | 52.36046 | 65.07434 | 32805 ft | 446 kts | 140° |
| 2026-04-22 20:15 | 52.31837 | 65.14895 | 32774 ft | 446 kts | 140° |
| 2026-04-22 20:16 | 52.27621 | 65.22353 | 32784 ft | 445 kts | 140° |
| 2026-04-22 20:16 | 52.23419 | 65.29754 | 32786 ft | 445 kts | 140° |
| 2026-04-22 20:17 | 52.19203 | 65.37141 | 32791 ft | 445 kts | 140° |
| 2026-04-22 20:17 | 52.14982 | 65.44533 | 32773 ft | 445 kts | 140° |
| 2026-04-22 20:18 | 52.10760 | 65.51902 | 32779 ft | 445 kts | 140° |
| 2026-04-22 20:18 | 52.06539 | 65.59241 | 32793 ft | 445 kts | 140° |
| 2026-04-22 20:19 | 52.02307 | 65.66578 | 32795 ft | 445 kts | 140° |
| 2026-04-22 20:19 | 51.98077 | 65.73910 | 32799 ft | 445 kts | 140° |
| 2026-04-22 20:20 | 51.93846 | 65.81220 | 32772 ft | 444 kts | 141° |
| 2026-04-22 20:20 | 51.89598 | 65.88500 | 32787 ft | 444 kts | 141° |
| 2026-04-22 20:21 | 51.85351 | 65.95779 | 32778 ft | 445 kts | 141° |
| 2026-04-22 20:21 | 51.81104 | 66.03061 | 32784 ft | 445 kts | 141° |
| 2026-04-22 20:22 | 51.76850 | 66.10317 | 32760 ft | 444 kts | 142° |
| 2026-04-22 20:22 | 51.72584 | 66.17532 | 32799 ft | 444 kts | 142° |
| 2026-04-22 20:23 | 51.68327 | 66.24746 | 32814 ft | 444 kts | 142° |
| 2026-04-22 20:23 | 51.64068 | 66.31951 | 32821 ft | 444 kts | 142° |
| 2026-04-22 20:24 | 51.59803 | 66.39150 | 32825 ft | 444 kts | 142° |
| 2026-04-22 20:24 | 51.55549 | 66.46321 | 32802 ft | 443 kts | 142° |
| 2026-04-22 20:25 | 51.51271 | 66.53450 | 32811 ft | 443 kts | 143° |
| 2026-04-22 20:25 | 51.46997 | 66.60568 | 32813 ft | 443 kts | 142° |
| 2026-04-22 20:26 | 51.42727 | 66.67676 | 32802 ft | 443 kts | 142° |
| 2026-04-22 20:26 | 51.38484 | 66.74740 | 32784 ft | 442 kts | 143° |
| 2026-04-22 20:27 | 51.34206 | 66.81814 | 32794 ft | 442 kts | 143° |
| 2026-04-22 20:27 | 51.29929 | 66.88878 | 32788 ft | 442 kts | 143° |
| 2026-04-22 20:28 | 51.25652 | 66.95942 | 32796 ft | 442 kts | 143° |
| 2026-04-22 20:28 | 51.21364 | 67.02979 | 32795 ft | 442 kts | 144° |
| 2026-04-22 20:29 | 51.17047 | 67.10041 | 32752 ft | 442 kts | 145° |
| 2026-04-22 20:29 | 51.12754 | 67.17048 | 32771 ft | 442 kts | 145° |
| 2026-04-22 20:30 | 51.08465 | 67.24029 | 32783 ft | 441 kts | 145° |
| 2026-04-22 20:30 | 51.04172 | 67.31009 | 32784 ft | 441 kts | 145° |
| 2026-04-22 20:31 | 50.99872 | 67.37964 | 32751 ft | 441 kts | 146° |
| 2026-04-22 20:31 | 50.95555 | 67.44917 | 32755 ft | 442 kts | 146° |
| 2026-04-22 20:32 | 50.91239 | 67.51869 | 32764 ft | 443 kts | 146° |
| 2026-04-22 20:32 | 50.86905 | 67.58821 | 32763 ft | 443 kts | 146° |
| 2026-04-22 20:33 | 50.82568 | 67.65753 | 32729 ft | 444 kts | 146° |
| 2026-04-22 20:33 | 50.78209 | 67.72696 | 32761 ft | 449 kts | 146° |
| 2026-04-22 20:34 | 50.73807 | 67.79708 | 32764 ft | 449 kts | 146° |
| 2026-04-22 20:34 | 50.69405 | 67.86707 | 32763 ft | 449 kts | 146° |
| 2026-04-22 20:35 | 50.65003 | 67.93683 | 32764 ft | 449 kts | 146° |
| 2026-04-22 20:35 | 50.60585 | 68.00650 | 32737 ft | 449 kts | 146° |
| 2026-04-22 20:36 | 50.56168 | 68.07599 | 32741 ft | 449 kts | 146° |
| 2026-04-22 20:36 | 50.51929 | 68.14925 | 32714 ft | 464 kts | 135° |
| 2026-04-22 20:37 | 50.48415 | 68.23559 | 32714 ft | 470 kts | 132° |
| 2026-04-22 20:37 | 50.44912 | 68.32256 | 32718 ft | 474 kts | 132° |
| 2026-04-22 20:38 | 50.41365 | 68.41013 | 32726 ft | 475 kts | 132° |
| 2026-04-22 20:38 | 50.37814 | 68.49713 | 32725 ft | 474 kts | 132° |
| 2026-04-22 20:39 | 50.34245 | 68.58412 | 32725 ft | 474 kts | 132° |
| 2026-04-22 20:39 | 50.30681 | 68.67096 | 32723 ft | 474 kts | 132° |
| 2026-04-22 20:40 | 50.27114 | 68.75774 | 32729 ft | 474 kts | 132° |
| 2026-04-22 20:40 | 50.24150 | 68.82962 | 32736 ft | 474 kts | 132° |
| 2026-04-22 20:41 | 50.19967 | 68.93053 | 32720 ft | 473 kts | 132° |
| 2026-04-22 20:41 | 50.16384 | 69.01641 | 32720 ft | 473 kts | 132° |
| 2026-04-22 20:42 | 50.12800 | 69.10233 | 32682 ft | 472 kts | 133° |
| 2026-04-22 20:42 | 50.09822 | 69.17352 | 32700 ft | 472 kts | 133° |
| 2026-04-22 20:43 | 50.06241 | 69.25901 | 32714 ft | 471 kts | 133° |
| 2026-04-22 20:43 | 50.02658 | 69.34412 | 32709 ft | 470 kts | 133° |
| 2026-04-22 20:44 | 49.99068 | 69.42918 | 32708 ft | 470 kts | 133° |
| 2026-04-22 20:44 | 49.95477 | 69.51394 | 32677 ft | 469 kts | 133° |
| 2026-04-22 20:45 | 49.91879 | 69.59842 | 32685 ft | 469 kts | 133° |
| 2026-04-22 20:45 | 49.88273 | 69.68294 | 32664 ft | 470 kts | 133° |
| 2026-04-22 20:46 | 49.82833 | 69.80978 | 32677 ft | 471 kts | 133° |
| 2026-04-22 20:46 | 49.79199 | 69.89439 | 32690 ft | 472 kts | 133° |
| 2026-04-22 20:47 | 49.75558 | 69.97886 | 32685 ft | 472 kts | 133° |
| 2026-04-22 20:47 | 49.71912 | 70.06329 | 32689 ft | 472 kts | 133° |
| 2026-04-22 20:48 | 49.68259 | 70.14740 | 32688 ft | 472 kts | 133° |
| 2026-04-22 20:48 | 49.64601 | 70.23141 | 32688 ft | 472 kts | 133° |
| 2026-04-22 20:49 | 49.60938 | 70.31521 | 32649 ft | 471 kts | 133° |
| 2026-04-22 20:49 | 49.57263 | 70.39909 | 32655 ft | 472 kts | 133° |
| 2026-04-22 20:50 | 49.53588 | 70.48280 | 32667 ft | 472 kts | 133° |
| 2026-04-22 20:50 | 49.49895 | 70.56640 | 32674 ft | 472 kts | 133° |
| 2026-04-22 20:51 | 49.46196 | 70.64988 | 32650 ft | 472 kts | 133° |
| 2026-04-22 20:51 | 49.42491 | 70.73340 | 32668 ft | 472 kts | 133° |
| 2026-04-22 20:52 | 49.38788 | 70.81662 | 32674 ft | 472 kts | 133° |
| 2026-04-22 20:52 | 49.35076 | 70.89975 | 32678 ft | 472 kts | 133° |
| 2026-04-22 20:53 | 49.31380 | 70.98216 | 32681 ft | 472 kts | 134° |
| 2026-04-22 20:53 | 49.27649 | 71.06529 | 32674 ft | 475 kts | 133° |
| 2026-04-22 20:54 | 49.23893 | 71.14858 | 32681 ft | 476 kts | 133° |
| 2026-04-22 20:54 | 49.20132 | 71.23185 | 32690 ft | 476 kts | 133° |
| 2026-04-22 20:55 | 49.16366 | 71.31505 | 32703 ft | 476 kts | 133° |
| 2026-04-22 20:55 | 49.12593 | 71.39803 | 32667 ft | 475 kts | 133° |
| 2026-04-22 20:56 | 49.08812 | 71.48071 | 32682 ft | 475 kts | 134° |
| 2026-04-22 20:56 | 49.05086 | 71.56202 | 32682 ft | 475 kts | 134° |
| 2026-04-22 20:57 | 49.01360 | 71.64308 | 32695 ft | 475 kts | 134° |
| 2026-04-22 20:57 | 48.97641 | 71.72388 | 32704 ft | 475 kts | 134° |
| 2026-04-22 20:58 | 48.93870 | 71.80541 | 32703 ft | 475 kts | 134° |
| 2026-04-22 20:58 | 48.90050 | 71.88787 | 32715 ft | 475 kts | 134° |
| 2026-04-22 20:59 | 48.86245 | 71.96980 | 32722 ft | 475 kts | 134° |
| 2026-04-22 20:59 | 48.82405 | 72.05218 | 32723 ft | 474 kts | 134° |
| 2026-04-22 21:00 | 48.78585 | 72.13375 | 32696 ft | 474 kts | 134° |
| 2026-04-22 21:00 | 48.74789 | 72.21467 | 32723 ft | 475 kts | 134° |
| 2026-04-22 21:01 | 48.70957 | 72.29618 | 32728 ft | 475 kts | 134° |
| 2026-04-22 21:01 | 48.67110 | 72.37764 | 32721 ft | 475 kts | 134° |
| 2026-04-22 21:02 | 48.63264 | 72.45892 | 32729 ft | 476 kts | 134° |
| 2026-04-22 21:02 | 48.59404 | 72.54024 | 32721 ft | 476 kts | 134° |
| 2026-04-22 21:03 | 48.55534 | 72.62148 | 32741 ft | 476 kts | 134° |
| 2026-04-22 21:03 | 48.52254 | 72.69019 | 32744 ft | 476 kts | 134° |
| 2026-04-22 21:04 | 48.49463 | 72.74849 | 32744 ft | 476 kts | 134° |
| 2026-04-22 21:04 | 48.46458 | 72.81060 | 32744 ft | 476 kts | 134° |
| 2026-04-22 21:05 | 48.42603 | 72.89105 | 32751 ft | 476 kts | 134° |
| 2026-04-22 21:05 | 48.39413 | 72.95757 | 32760 ft | 476 kts | 134° |
| 2026-04-22 21:06 | 48.35517 | 73.03829 | 32756 ft | 477 kts | 134° |
| 2026-04-22 21:06 | 48.31614 | 73.11885 | 32763 ft | 477 kts | 134° |
| 2026-04-22 21:07 | 48.27699 | 73.19942 | 32744 ft | 477 kts | 134° |
| 2026-04-22 21:07 | 48.23769 | 73.27979 | 32755 ft | 477 kts | 134° |
| 2026-04-22 21:08 | 48.19826 | 73.36015 | 32764 ft | 478 kts | 134° |
| 2026-04-22 21:08 | 48.17166 | 73.41437 | 32771 ft | 478 kts | 134° |
| 2026-04-22 21:09 | 48.13913 | 73.48062 | 32774 ft | 478 kts | 134° |
| 2026-04-22 21:09 | 48.09729 | 73.55637 | 32770 ft | 465 kts | 146° |
| 2026-04-22 21:10 | 48.07286 | 73.58605 | 32770 ft | 454 kts | 154° |
| 2026-04-22 21:10 | 48.04604 | 73.61174 | 32769 ft | 451 kts | 156° |
| 2026-04-22 21:10 | 47.99329 | 73.66150 | 32768 ft | 451 kts | 156° |
| 2026-04-22 21:11 | 47.94026 | 73.71180 | 32760 ft | 452 kts | 156° |
| 2026-04-22 21:11 | 47.88704 | 73.76217 | 32757 ft | 455 kts | 156° |
| 2026-04-22 21:12 | 47.83350 | 73.81257 | 32766 ft | 455 kts | 156° |
| 2026-04-22 21:12 | 47.77956 | 73.86315 | 32771 ft | 455 kts | 156° |
| 2026-04-22 21:13 | 47.72601 | 73.91322 | 32744 ft | 455 kts | 156° |
| 2026-04-22 21:13 | 47.70054 | 73.93712 | 32751 ft | 455 kts | 155° |
| 2026-04-22 21:14 | 47.64706 | 73.98732 | 32761 ft | 455 kts | 156° |
| 2026-04-22 21:14 | 47.59487 | 74.03588 | 32764 ft | 455 kts | 156° |
| 2026-04-22 21:15 | 47.55402 | 74.07370 | 32769 ft | 455 kts | 156° |
| 2026-04-22 21:15 | 47.50782 | 74.11662 | 32752 ft | 455 kts | 155° |
| 2026-04-22 21:16 | 47.46159 | 74.15948 | 32762 ft | 456 kts | 156° |
| 2026-04-22 21:16 | 47.40779 | 74.20911 | 32764 ft | 456 kts | 156° |
| 2026-04-22 21:17 | 47.35397 | 74.25869 | 32770 ft | 456 kts | 156° |
| 2026-04-22 21:17 | 47.30706 | 74.30192 | 32751 ft | 456 kts | 155° |
| 2026-04-22 21:18 | 47.25315 | 74.35141 | 32758 ft | 457 kts | 156° |
| 2026-04-22 21:18 | 47.19945 | 74.40048 | 32764 ft | 457 kts | 156° |
| 2026-04-22 21:19 | 47.14547 | 74.44976 | 32746 ft | 457 kts | 156° |
| 2026-04-22 21:19 | 47.10657 | 74.48527 | 32752 ft | 457 kts | 156° |
| 2026-04-22 21:20 | 47.05447 | 74.53260 | 32762 ft | 457 kts | 156° |
| 2026-04-22 21:20 | 47.01133 | 74.57169 | 32776 ft | 457 kts | 156° |
| 2026-04-22 21:21 | 46.95819 | 74.61985 | 32741 ft | 457 kts | 156° |
| 2026-04-22 21:21 | 46.90438 | 74.66844 | 32757 ft | 457 kts | 156° |
| 2026-04-22 21:22 | 46.85029 | 74.71723 | 32764 ft | 457 kts | 156° |
| 2026-04-22 21:22 | 46.79609 | 74.76597 | 32768 ft | 457 kts | 156° |
| 2026-04-22 21:23 | 46.74177 | 74.81458 | 32741 ft | 457 kts | 156° |
| 2026-04-22 21:23 | 46.68744 | 74.86311 | 32744 ft | 458 kts | 156° |
| 2026-04-22 21:24 | 46.63307 | 74.91170 | 32754 ft | 459 kts | 156° |
| 2026-04-22 21:24 | 46.57858 | 74.96025 | 32741 ft | 459 kts | 156° |
| 2026-04-22 21:25 | 46.52416 | 75.00867 | 32748 ft | 459 kts | 156° |
| 2026-04-22 21:25 | 46.46993 | 75.05671 | 32759 ft | 459 kts | 156° |
| 2026-04-22 21:26 | 46.41536 | 75.10494 | 32769 ft | 459 kts | 156° |
| 2026-04-22 21:26 | 46.36993 | 75.14498 | 32751 ft | 459 kts | 156° |
| 2026-04-22 21:27 | 46.30608 | 75.20108 | 32769 ft | 460 kts | 156° |
| 2026-04-22 21:27 | 46.26028 | 75.24135 | 32786 ft | 460 kts | 156° |
| 2026-04-22 21:28 | 46.20593 | 75.28903 | 32783 ft | 460 kts | 156° |
| 2026-04-22 21:28 | 46.15142 | 75.33662 | 32784 ft | 459 kts | 156° |
| 2026-04-22 21:29 | 46.09642 | 75.38452 | 32785 ft | 459 kts | 156° |
| 2026-04-22 21:29 | 46.04170 | 75.43214 | 32770 ft | 459 kts | 156° |
| 2026-04-22 21:30 | 45.98704 | 75.47955 | 32763 ft | 459 kts | 156° |
| 2026-04-22 21:30 | 45.93230 | 75.52694 | 32768 ft | 459 kts | 156° |
| 2026-04-22 21:31 | 45.87766 | 75.57421 | 32772 ft | 459 kts | 156° |
| 2026-04-22 21:31 | 45.82280 | 75.62148 | 32757 ft | 459 kts | 156° |
| 2026-04-22 21:32 | 45.76793 | 75.66859 | 32763 ft | 460 kts | 156° |
| 2026-04-22 21:32 | 45.71308 | 75.71408 | 32763 ft | 454 kts | 162° |
| 2026-04-22 21:33 | 45.65529 | 75.74962 | 32739 ft | 452 kts | 164° |
| 2026-04-22 21:33 | 45.59727 | 75.78513 | 32752 ft | 453 kts | 163° |
| 2026-04-22 21:34 | 45.53928 | 75.82064 | 32758 ft | 454 kts | 163° |
| 2026-04-22 21:34 | 45.48123 | 75.85608 | 32743 ft | 454 kts | 163° |
| 2026-04-22 21:35 | 45.43429 | 75.88462 | 32754 ft | 455 kts | 163° |
| 2026-04-22 21:35 | 45.38424 | 75.91498 | 32755 ft | 455 kts | 163° |
| 2026-04-22 21:36 | 45.32596 | 75.95028 | 32768 ft | 456 kts | 163° |
| 2026-04-22 21:36 | 45.26756 | 75.98554 | 32742 ft | 456 kts | 163° |
| 2026-04-22 21:37 | 45.20906 | 76.02072 | 32755 ft | 457 kts | 163° |
| 2026-04-22 21:37 | 45.15066 | 76.05577 | 32763 ft | 457 kts | 163° |
| 2026-04-22 21:38 | 45.09182 | 76.09111 | 32748 ft | 458 kts | 163° |
| 2026-04-22 21:38 | 45.03305 | 76.12631 | 32754 ft | 459 kts | 163° |
| 2026-04-22 21:39 | 44.97461 | 76.16120 | 32763 ft | 459 kts | 163° |
| 2026-04-22 21:39 | 44.91565 | 76.19625 | 32755 ft | 460 kts | 163° |
| 2026-04-22 21:40 | 44.85658 | 76.23130 | 32279 ft | 461 kts | 163° |
| 2026-04-22 21:40 | 44.82701 | 76.24883 | 31765 ft | 461 kts | 162° |
| 2026-04-22 21:40 | 44.79733 | 76.26644 | 31262 ft | 462 kts | 162° |
| 2026-04-22 21:41 | 44.76769 | 76.28400 | 30777 ft | 463 kts | 162° |
| 2026-04-22 21:41 | 44.73802 | 76.30157 | 30276 ft | 464 kts | 162° |
| 2026-04-22 21:41 | 44.70817 | 76.31918 | 29791 ft | 465 kts | 162° |
| 2026-04-22 21:41 | 44.67828 | 76.33677 | 29237 ft | 466 kts | 162° |
| 2026-04-22 21:42 | 44.66882 | 76.34235 | 29064 ft | 467 kts | 162° |
| 2026-04-22 21:42 | 44.64755 | 76.35487 | 28685 ft | 468 kts | 162° |
| 2026-04-22 21:42 | 44.62547 | 76.36788 | 28296 ft | 470 kts | 162° |
| 2026-04-22 21:42 | 44.59526 | 76.38568 | 27770 ft | 471 kts | 162° |
| 2026-04-22 21:43 | 44.56529 | 76.40326 | 27247 ft | 473 kts | 162° |
| 2026-04-22 21:43 | 44.53445 | 76.42132 | 26737 ft | 476 kts | 162° |
| 2026-04-22 21:43 | 44.50389 | 76.43919 | 26242 ft | 478 kts | 162° |
| 2026-04-22 21:43 | 44.47351 | 76.45693 | 25727 ft | 480 kts | 162° |
| 2026-04-22 21:44 | 44.44251 | 76.47503 | 25123 ft | 482 kts | 162° |
| 2026-04-22 21:44 | 44.41158 | 76.49308 | 24540 ft | 484 kts | 161° |
| 2026-04-22 21:44 | 44.38058 | 76.51119 | 23958 ft | 479 kts | 161° |
| 2026-04-22 21:44 | 44.35065 | 76.52940 | 23389 ft | 462 kts | 157° |
| 2026-04-22 21:45 | 44.32330 | 76.55252 | 22726 ft | 460 kts | 147° |
| 2026-04-22 21:45 | 44.29774 | 76.57935 | 22072 ft | 456 kts | 146° |
| 2026-04-22 21:45 | 44.27257 | 76.60584 | 21435 ft | 452 kts | 146° |
| 2026-04-22 21:45 | 44.24740 | 76.63223 | 20775 ft | 450 kts | 146° |
| 2026-04-22 21:46 | 44.22780 | 76.65278 | 20208 ft | 442 kts | 146° |
| 2026-04-22 21:46 | 44.21086 | 76.67055 | 19694 ft | 437 kts | 146° |
| 2026-04-22 21:46 | 44.19444 | 76.68779 | 19205 ft | 423 kts | 146° |
| 2026-04-22 21:46 | 44.18656 | 76.69607 | 18960 ft | 417 kts | 146° |
| 2026-04-22 21:48 | 44.03981 | 76.84911 | 14962 ft | 355 kts | 146° |
| 2026-04-22 21:49 | 44.00084 | 76.88961 | 14364 ft | 352 kts | 146° |
| 2026-04-22 21:49 | 43.94952 | 76.94278 | 13458 ft | 346 kts | 146° |
| 2026-04-22 21:49 | 43.93048 | 76.96241 | 13114 ft | 345 kts | 146° |
| 2026-04-22 21:50 | 43.91129 | 76.98220 | 12777 ft | 344 kts | 146° |
| 2026-04-22 21:50 | 43.89211 | 77.00200 | 12439 ft | 343 kts | 146° |
| 2026-04-22 21:50 | 43.87302 | 77.02170 | 12114 ft | 342 kts | 145° |
| 2026-04-22 21:50 | 43.85400 | 77.04134 | 11786 ft | 340 kts | 145° |
| 2026-04-22 21:51 | 43.83501 | 77.06092 | 11487 ft | 339 kts | 145° |
| 2026-04-22 21:51 | 43.81607 | 77.08046 | 11289 ft | 340 kts | 145° |
| 2026-04-22 21:51 | 43.79713 | 77.09997 | 10966 ft | 338 kts | 145° |
| 2026-04-22 21:52 | 43.75943 | 77.13872 | 10318 ft | 337 kts | 144° |
| 2026-04-22 21:52 | 43.74064 | 77.15801 | 9983 ft | 336 kts | 144° |
| 2026-04-22 21:52 | 43.72213 | 77.17700 | 9801 ft | 326 kts | 144° |
| 2026-04-22 21:52 | 43.70420 | 77.19538 | 9651 ft | 312 kts | 144° |
| 2026-04-22 21:53 | 43.68730 | 77.21268 | 9057 ft | 301 kts | 144° |
| 2026-04-22 21:53 | 43.67068 | 77.22969 | 8391 ft | 294 kts | 144° |
| 2026-04-22 21:53 | 43.65443 | 77.24632 | 8173 ft | 290 kts | 144° |
| 2026-04-22 21:53 | 43.63821 | 77.26291 | 8096 ft | 290 kts | 144° |
| 2026-04-22 21:54 | 43.62198 | 77.27946 | 7991 ft | 290 kts | 144° |
| 2026-04-22 21:54 | 43.60581 | 77.29598 | 7866 ft | 289 kts | 144° |
| 2026-04-22 21:54 | 43.58973 | 77.31234 | 7700 ft | 289 kts | 144° |
| 2026-04-22 21:54 | 43.57308 | 77.32857 | 7204 ft | 292 kts | 146° |
| 2026-04-22 21:55 | 43.55656 | 77.34413 | 7017 ft | 281 kts | 146° |
| 2026-04-22 21:55 | 43.54006 | 77.35680 | 6818 ft | 266 kts | 164° |
| 2026-04-22 21:55 | 43.52210 | 77.35798 | 6509 ft | 256 kts | 195° |
| 2026-04-22 21:55 | 43.50645 | 77.34705 | 6274 ft | 256 kts | 223° |
| 2026-04-22 21:56 | 43.49560 | 77.32773 | 5998 ft | 256 kts | 237° |
| 2026-04-22 21:56 | 43.48602 | 77.30727 | 5727 ft | 252 kts | 237° |
| 2026-04-22 21:56 | 43.47670 | 77.28762 | 5475 ft | 244 kts | 236° |
| 2026-04-22 21:56 | 43.46734 | 77.26851 | 5222 ft | 237 kts | 236° |
| 2026-04-22 21:57 | 43.45826 | 77.25004 | 5007 ft | 228 kts | 236° |
| 2026-04-22 21:57 | 43.44972 | 77.23269 | 4904 ft | 209 kts | 236° |
| 2026-04-22 21:57 | 43.44179 | 77.21656 | 4683 ft | 198 kts | 236° |
| 2026-04-22 21:57 | 43.43420 | 77.20114 | 4442 ft | 191 kts | 236° |
| 2026-04-22 21:58 | 43.42689 | 77.18630 | 4203 ft | 185 kts | 236° |
| 2026-04-22 21:58 | 43.41989 | 77.17208 | 3988 ft | 175 kts | 236° |
| 2026-04-22 21:58 | 43.41326 | 77.15863 | 3763 ft | 164 kts | 236° |
| 2026-04-22 21:58 | 43.40697 | 77.14588 | 3542 ft | 159 kts | 236° |
| 2026-04-22 21:59 | 43.40084 | 77.13345 | 3337 ft | 156 kts | 236° |
| 2026-04-22 21:59 | 43.39478 | 77.12118 | 3136 ft | 154 kts | 236° |
| 2026-04-22 21:59 | 43.38879 | 77.10904 | 2929 ft | 153 kts | 236° |
| 2026-04-22 21:59 | 43.38291 | 77.09701 | 2720 ft | 150 kts | 236° |
| 2026-04-22 22:00 | 43.37708 | 77.08511 | 2503 ft | 150 kts | 235° |
| 2026-04-22 22:00 | 43.37116 | 77.07328 | 2320 ft | 150 kts | 235° |
| 2026-04-22 22:00 | 43.36544 | 77.06189 | 2225 ft | 136 kts | 236° |
| 2026-04-22 22:00 | 43.36092 | 77.05256 | 2224 ft | 94 kts | 235° |
| 2026-04-22 22:01 | 43.35815 | 77.04698 | 2224 ft | 56 kts | 236° |
| 2026-04-22 22:01 | 43.35646 | 77.04355 | 2223 ft | 39 kts | 236° |
| 2026-04-22 22:01 | 43.35525 | 77.04111 | 2222 ft | 26 kts | 236° |
| 2026-04-22 22:01 | 43.35427 | 77.03915 | 2220 ft | 24 kts | 235° |
| 2026-04-22 22:02 | 43.35338 | 77.03737 | 2224 ft | 21 kts | 236° |
| 2026-04-22 22:02 | 43.35260 | 77.03579 | 2227 ft | 19 kts | 236° |
| 2026-04-22 22:02 | 43.35190 | 77.03437 | 2228 ft | 19 kts | 236° |
| 2026-04-22 22:02 | 43.35113 | 77.03284 | 2225 ft | 19 kts | 235° |
| 2026-04-22 22:03 | 43.35040 | 77.03138 | 2225 ft | 18 kts | 236° |
| 2026-04-22 22:03 | 43.34968 | 77.02994 | 2223 ft | 18 kts | 236° |
| 2026-04-22 22:03 | 43.34902 | 77.02861 | 2224 ft | 16 kts | 236° |
| 2026-04-22 22:03 | 43.34840 | 77.02737 | 2223 ft | 15 kts | 236° |
| 2026-04-22 22:04 | 43.34787 | 77.02626 | 2227 ft | 12 kts | 238° |
| 2026-04-22 22:04 | 43.34772 | 77.02526 | 2229 ft | 10 kts | 270° |
| 2026-04-22 22:04 | 43.34776 | 77.02428 | 2227 ft | 13 kts | 273° |
| 2026-04-22 22:04 | 43.34782 | 77.02287 | 2228 ft | 15 kts | 273° |
| 2026-04-22 22:05 | 43.34789 | 77.02151 | 2228 ft | 13 kts | 274° |
| 2026-04-22 22:05 | 43.34795 | 77.02030 | 2229 ft | 12 kts | 274° |
| 2026-04-22 22:05 | 43.34801 | 77.01923 | 2225 ft | 11 kts | 274° |
| 2026-04-22 22:05 | 43.34806 | 77.01818 | 2229 ft | 12 kts | 274° |
| 2026-04-22 22:06 | 43.34812 | 77.01706 | 2225 ft | 12 kts | 274° |
| 2026-04-22 22:06 | 43.34817 | 77.01591 | 2226 ft | 12 kts | 274° |
| 2026-04-22 22:06 | 43.34797 | 77.01516 | 2229 ft | 7 kts | 183° |
| 2026-04-22 22:06 | 43.34764 | 77.01507 | 2226 ft | 3 kts | 220° |
| 2026-04-22 22:07 | 43.34741 | 77.01468 | 2229 ft | 9 kts | 218° |
| 2026-04-22 22:07 | 43.34681 | 77.01441 | 2228 ft | 9 kts | 182° |
| 2026-04-22 22:07 | 43.34644 | 77.01419 | 2229 ft | 5 kts | 225° |
| 2026-04-22 22:07 | 43.34636 | 77.01386 | 2228 ft | 3 kts | 263° |
| 2026-04-22 22:08 | 43.34635 | 77.01366 | 2228 ft | 2 kts | 272° |
| 2026-04-22 22:08 | 43.34636 | 77.01351 | 2229 ft | 1 kts | 273° |
| 2026-04-22 22:08 | 43.34637 | 77.01335 | 2229 ft | 1 kts | 276° |
| 2026-04-22 22:08 | 43.34637 | 77.01332 | 2229 ft | 0 kts | 276° |